createdAt,value
2022-10-11T00:00:26.254Z,11.67
2022-10-11T00:04:29.287Z,11.63
2022-10-11T00:08:32.608Z,11.63
2022-10-11T00:12:36.151Z,11.62
2022-10-11T00:16:44.414Z,11.59
2022-10-11T00:20:47.707Z,11.55
2022-10-11T00:24:52.695Z,11.52
2022-10-11T00:28:55.971Z,11.53
2022-10-11T00:33:00.764Z,11.56
2022-10-11T00:37:04.464Z,11.60
2022-10-11T00:41:07.792Z,11.63
2022-10-11T00:45:59.734Z,11.63
2022-10-11T00:50:04.898Z,11.64
2022-10-11T00:54:12.532Z,11.66
2022-10-11T00:58:15.929Z,11.67
2022-10-11T01:02:20.583Z,11.67
2022-10-11T01:06:25.334Z,11.67
2022-10-11T01:10:29.416Z,11.68
2022-10-11T01:15:04.363Z,11.67
2022-10-11T01:19:24.288Z,11.66
2022-10-11T01:24:08.838Z,11.65
2022-10-11T01:28:26.429Z,11.63
2022-10-11T01:32:39.679Z,11.63
2022-10-11T01:36:49.234Z,11.62
2022-10-11T01:40:57.613Z,11.59
2022-10-11T01:45:01.489Z,11.58
2022-10-11T01:49:06.282Z,11.60
2022-10-11T01:53:25.248Z,11.60
2022-10-11T01:57:57.326Z,11.55
2022-10-11T02:02:14.214Z,11.53
2022-10-11T02:06:25.507Z,11.54
2022-10-11T02:10:35.568Z,11.54
2022-10-11T02:14:43.153Z,11.54
2022-10-11T02:18:51.237Z,11.50
2022-10-11T02:23:01.761Z,11.45
2022-10-11T02:27:06.988Z,11.43
2022-10-11T02:31:12.253Z,11.42
2022-10-11T02:35:16.038Z,11.40
2022-10-11T02:39:25.953Z,11.43
2022-10-11T02:43:36.526Z,11.44
2022-10-11T02:47:40.438Z,11.44
2022-10-11T02:51:43.988Z,11.44
2022-10-11T02:55:51.797Z,11.46
2022-10-11T02:59:55.077Z,11.46
2022-10-11T03:03:58.276Z,11.48
2022-10-11T03:08:01.251Z,11.44
2022-10-11T03:12:06.124Z,11.43
2022-10-11T03:16:09.724Z,11.40
2022-10-11T03:20:13.193Z,11.35
2022-10-11T03:24:16.457Z,11.31
2022-10-11T03:28:21.068Z,11.31
2022-10-11T03:32:24.741Z,11.34
2022-10-11T03:36:27.857Z,11.36
2022-10-11T03:40:31.059Z,11.38
2022-10-11T03:44:35.504Z,11.38
2022-10-11T03:48:38.536Z,11.40
2022-10-11T03:52:41.791Z,11.39
2022-10-11T03:56:44.826Z,11.40
2022-10-11T04:00:49.499Z,11.38
2022-10-11T04:04:52.512Z,11.36
2022-10-11T04:08:55.783Z,11.35
2022-10-11T04:12:58.858Z,11.35
2022-10-11T04:17:03.450Z,11.35
2022-10-11T04:21:07.181Z,11.36
2022-10-11T04:25:10.941Z,11.37
2022-10-11T04:29:14.202Z,11.34
2022-10-11T04:33:19.016Z,11.33
2022-10-11T04:37:22.121Z,11.35
2022-10-11T04:41:25.289Z,11.36
2022-10-11T04:45:28.418Z,11.37
2022-10-11T04:49:32.811Z,11.36
2022-10-11T04:53:35.957Z,11.36
2022-10-11T04:57:39.093Z,11.35
2022-10-11T05:01:42.058Z,11.35
2022-10-11T05:05:46.315Z,11.31
2022-10-11T05:09:49.271Z,11.28
2022-10-11T05:13:52.174Z,11.24
2022-10-11T05:17:55.105Z,11.18
2022-10-11T05:21:59.348Z,11.15
2022-10-11T05:26:02.963Z,11.13
2022-10-11T05:30:07.497Z,11.08
2022-10-11T05:34:11.735Z,11.02
2022-10-11T05:38:32.693Z,10.96
2022-10-11T05:42:36.581Z,10.92
2022-10-11T05:46:40.527Z,10.88
2022-10-11T05:50:43.590Z,10.86
2022-10-11T05:54:48.032Z,10.87
2022-10-11T05:58:51.998Z,10.86
2022-10-11T06:02:55.139Z,10.86
2022-10-11T06:07:00.048Z,10.86
2022-10-11T06:11:12.583Z,10.88
2022-10-11T06:15:15.766Z,10.88
2022-10-11T06:19:19.053Z,10.88
2022-10-11T06:23:22.060Z,10.92
2022-10-11T06:27:27.098Z,10.94
2022-10-11T06:31:30.212Z,10.99
2022-10-11T06:35:33.634Z,11.03
2022-10-11T06:39:36.909Z,11.12
2022-10-11T06:43:44.484Z,11.20
2022-10-11T06:47:47.771Z,11.30
2022-10-11T06:51:50.829Z,11.41
2022-10-11T06:55:54.092Z,11.52
2022-10-11T06:59:58.465Z,11.61
2022-10-11T07:04:03.081Z,11.70
2022-10-11T07:08:06.597Z,11.78
2022-10-11T07:12:10.320Z,11.86
2022-10-11T07:16:14.850Z,11.96
2022-10-11T07:20:18.510Z,12.06
2022-10-11T07:24:21.732Z,12.17
2022-10-11T07:28:25.203Z,12.24
2022-10-11T07:32:29.745Z,12.34
2022-10-11T07:36:32.759Z,12.43
2022-10-11T07:40:41.871Z,12.52
2022-10-11T07:44:45.146Z,12.59
2022-10-11T07:48:50.246Z,12.67
2022-10-11T07:52:53.782Z,12.79
2022-10-11T07:56:56.832Z,12.87
2022-10-11T08:01:15.213Z,12.92
2022-10-11T08:05:19.867Z,12.99
2022-10-11T08:09:22.869Z,13.06
2022-10-11T08:13:25.950Z,13.15
2022-10-11T08:17:30.425Z,13.23
2022-10-11T08:21:35.094Z,13.28
2022-10-11T08:25:39.197Z,13.38
2022-10-11T08:29:42.313Z,13.45
2022-10-11T08:33:45.773Z,13.53
2022-10-11T08:37:50.249Z,13.62
2022-10-11T08:41:56.531Z,13.74
2022-10-11T08:46:03.162Z,13.82
2022-10-11T08:50:08.666Z,13.94
2022-10-11T08:54:20.839Z,14.06
2022-10-11T08:58:34.694Z,14.16
2022-10-11T09:03:06.788Z,14.32
2022-10-11T09:07:19.199Z,14.50
2022-10-11T09:11:32.424Z,14.63
2022-10-11T09:15:46.811Z,14.75
2022-10-11T09:20:17.590Z,14.85
2022-10-11T09:24:31.922Z,14.94
2022-10-11T09:28:48.591Z,15.05
2022-10-11T09:33:01.431Z,15.16
2022-10-11T09:37:15.429Z,15.24
2022-10-11T09:41:24.628Z,15.40
2022-10-11T09:45:29.575Z,15.51
2022-10-11T09:49:36.712Z,15.47
2022-10-11T09:53:58.220Z,15.55
2022-10-11T09:58:01.496Z,15.64
2022-10-11T10:02:23.767Z,15.67
2022-10-11T10:06:28.447Z,15.83
2022-10-11T10:10:35.739Z,15.98
2022-10-11T10:14:39.388Z,15.98
2022-10-11T10:18:51.663Z,16.06
2022-10-11T10:22:55.042Z,16.19
2022-10-11T10:27:21.503Z,16.31
2022-10-11T10:31:26.831Z,16.51
2022-10-11T10:35:36.115Z,16.60
2022-10-11T10:39:43.212Z,16.72
2022-10-11T10:43:53.620Z,16.81
2022-10-11T10:48:16.920Z,16.92
2022-10-11T10:52:42.672Z,17.05
2022-10-11T10:56:52.135Z,17.09
2022-10-11T11:01:00.538Z,17.19
2022-10-11T11:05:14.586Z,17.19
2022-10-11T11:09:35.612Z,17.25
2022-10-11T11:13:46.397Z,17.29
2022-10-11T11:18:03.142Z,17.32
2022-10-11T11:22:17.134Z,17.39
2022-10-11T11:26:27.346Z,17.50
2022-10-11T11:30:42.920Z,17.51
2022-10-11T11:34:50.272Z,17.47
2022-10-11T11:38:58.632Z,17.46
2022-10-11T11:43:08.568Z,17.44
2022-10-11T11:47:17.969Z,17.52
2022-10-11T11:51:30.728Z,17.48
2022-10-11T11:55:43.405Z,17.38
2022-10-11T11:59:56.911Z,17.35
2022-10-11T12:04:06.145Z,17.35
2022-10-11T12:08:26.916Z,17.46
2022-10-11T12:12:34.044Z,17.63
2022-10-11T12:17:22.339Z,17.62
2022-10-11T12:21:32.707Z,17.69
2022-10-11T12:25:39.744Z,17.76
2022-10-11T12:29:50.020Z,17.73
2022-10-11T12:34:16.792Z,17.73
2022-10-11T12:38:23.779Z,17.80
2022-10-11T12:42:32.232Z,17.84
2022-10-11T12:46:58.390Z,17.93
2022-10-11T12:51:21.411Z,17.98
2022-10-11T12:55:38.756Z,17.96
2022-10-11T12:59:45.949Z,17.92
2022-10-11T13:04:06.430Z,17.96
2022-10-11T13:08:14.923Z,17.98
2022-10-11T13:12:20.996Z,18.07
2022-10-11T13:16:26.817Z,18.06
2022-10-11T13:20:33.355Z,18.02
2022-10-11T13:24:40.792Z,18.02
2022-10-11T13:28:44.408Z,17.98
2022-10-11T13:32:48.136Z,17.96
2022-10-11T13:36:56.415Z,17.92
2022-10-11T13:41:04.503Z,17.90
2022-10-11T13:45:13.268Z,17.86
2022-10-11T13:49:28.692Z,17.85
2022-10-11T13:53:31.934Z,17.84
2022-10-11T13:57:40.255Z,17.81
2022-10-11T14:01:46.383Z,17.83
2022-10-11T14:05:56.694Z,17.84
2022-10-11T14:10:00.186Z,17.87
2022-10-11T14:14:36.470Z,17.87
2022-10-11T14:18:47.056Z,17.89
2022-10-11T14:22:52.271Z,17.92
2022-10-11T14:26:57.652Z,17.99
2022-10-11T14:31:00.689Z,18.02
2022-10-11T14:35:07.413Z,17.99
2022-10-11T14:39:18.330Z,17.97
2022-10-11T14:43:21.876Z,17.97
2022-10-11T14:47:25.295Z,17.93
2022-10-11T14:51:35.620Z,17.94
2022-10-11T14:55:40.989Z,17.90
2022-10-11T14:59:44.020Z,17.87
2022-10-11T15:03:47.121Z,17.84
2022-10-11T15:07:53.119Z,17.82
2022-10-11T15:11:59.662Z,17.78
2022-10-11T15:16:18.396Z,17.73
2022-10-11T15:20:30.631Z,17.72
2022-10-11T15:24:36.134Z,17.67
2022-10-11T15:28:49.454Z,17.62
2022-10-11T15:32:56.069Z,17.59
2022-10-11T15:36:59.309Z,17.55
2022-10-11T15:41:03.775Z,17.50
2022-10-11T15:45:07.250Z,17.46
2022-10-11T15:49:13.388Z,17.41
2022-10-11T15:53:18.486Z,17.37
2022-10-11T15:57:23.104Z,17.32
2022-10-11T16:01:26.156Z,17.27
2022-10-11T16:05:30.403Z,17.25
2022-10-11T16:09:33.557Z,17.19
2022-10-11T16:13:39.105Z,17.13
2022-10-11T16:17:42.107Z,17.11
2022-10-11T16:21:45.071Z,17.05
2022-10-11T16:25:56.816Z,16.99
2022-10-11T16:30:01.712Z,16.97
2022-10-11T16:34:04.905Z,17.00
2022-10-11T16:38:07.904Z,17.01
2022-10-11T16:42:11.567Z,16.97
2022-10-11T16:46:15.949Z,16.88
2022-10-11T16:50:19.143Z,16.80
2022-10-11T16:54:23.188Z,16.76
2022-10-11T16:58:26.472Z,16.72
2022-10-11T17:02:32.566Z,16.69
2022-10-11T17:06:36.002Z,16.69
2022-10-11T17:10:40.318Z,16.65
2022-10-11T17:14:44.049Z,16.65
2022-10-11T17:18:49.395Z,16.65
2022-10-11T17:22:52.505Z,16.64
2022-10-11T17:26:56.097Z,16.59
2022-10-11T17:30:59.526Z,16.57
2022-10-11T17:35:04.465Z,16.53
2022-10-11T17:39:09.849Z,16.49
2022-10-11T17:43:13.242Z,16.46
2022-10-11T17:47:16.309Z,16.43
2022-10-11T17:51:21.098Z,16.39
2022-10-11T17:55:24.372Z,16.34
2022-10-11T17:59:28.768Z,16.33
2022-10-11T18:03:31.815Z,16.33
2022-10-11T18:07:36.463Z,16.30
2022-10-11T18:11:39.656Z,16.27
2022-10-11T18:15:42.651Z,16.25
2022-10-11T18:19:46.030Z,16.22
2022-10-11T18:23:50.464Z,16.17
2022-10-11T18:27:53.818Z,16.15
2022-10-11T18:31:56.950Z,16.12
2022-10-11T18:36:01.653Z,16.12
2022-10-11T18:40:07.329Z,16.11
2022-10-11T18:44:15.388Z,16.14
2022-10-11T18:48:19.237Z,16.16
2022-10-11T18:52:22.877Z,16.13
2022-10-11T18:56:30.795Z,16.12
2022-10-11T19:00:42.410Z,16.12
2022-10-11T19:04:45.527Z,16.10
2022-10-11T19:08:51.434Z,16.06
2022-10-11T19:12:55.844Z,16.04
2022-10-11T19:16:59.375Z,16.03
2022-10-11T19:21:04.037Z,15.96
2022-10-11T19:25:08.139Z,15.92
2022-10-11T19:29:15.357Z,15.91
2022-10-11T19:33:18.566Z,15.89
2022-10-11T19:37:21.604Z,15.85
2022-10-11T19:41:27.359Z,15.79
2022-10-11T19:45:31.812Z,15.74
2022-10-11T19:49:34.809Z,15.69
2022-10-11T19:53:38.051Z,15.66
2022-10-11T19:57:41.090Z,15.65
2022-10-11T20:01:49.622Z,15.61
2022-10-11T20:05:55.878Z,15.58
2022-10-11T20:09:58.918Z,15.53
2022-10-11T20:14:02.142Z,15.48
2022-10-11T20:18:06.736Z,15.48
2022-10-11T20:22:09.945Z,15.45
2022-10-11T20:26:15.849Z,15.39
2022-10-11T20:30:19.355Z,15.31
2022-10-11T20:34:23.848Z,15.29
2022-10-11T20:38:27.166Z,15.23
2022-10-11T20:42:30.539Z,15.20
2022-10-11T20:46:35.736Z,15.16
2022-10-11T20:50:44.449Z,15.14
2022-10-11T20:54:47.483Z,15.16
2022-10-11T20:58:52.234Z,15.16
2022-10-11T21:02:55.431Z,15.17
2022-10-11T21:06:59.839Z,15.15
2022-10-11T21:11:03.125Z,15.07
2022-10-11T21:15:07.356Z,15.06
2022-10-11T21:19:14.476Z,15.03
2022-10-11T21:23:20.033Z,15.00
2022-10-11T21:27:24.741Z,14.96
2022-10-11T21:31:33.582Z,14.85
2022-10-11T21:35:40.173Z,14.79
2022-10-11T21:39:44.513Z,14.73
2022-10-11T21:43:48.583Z,14.69
2022-10-11T21:47:51.628Z,14.65
2022-10-11T21:51:54.861Z,14.60
2022-10-11T21:55:59.697Z,14.56
2022-10-11T22:00:03.103Z,14.51
2022-10-11T22:04:16.254Z,14.48
2022-10-11T22:08:19.652Z,14.42
2022-10-11T22:12:24.213Z,14.38
2022-10-11T22:16:27.194Z,14.31
2022-10-11T22:20:30.640Z,14.25
2022-10-11T22:24:33.846Z,14.19
2022-10-11T22:28:38.535Z,14.17
2022-10-11T22:32:42.022Z,14.14
2022-10-11T22:36:45.229Z,14.06
2022-10-11T22:40:48.462Z,13.97
2022-10-11T22:44:52.826Z,13.94
2022-10-11T22:48:55.783Z,13.93
2022-10-11T22:52:58.763Z,13.92
2022-10-11T22:57:01.815Z,13.90
2022-10-11T23:01:10.418Z,13.86
2022-10-11T23:05:13.559Z,13.81
2022-10-11T23:09:16.541Z,13.80
2022-10-11T23:13:19.557Z,13.73
2022-10-11T23:17:24.127Z,13.73
2022-10-11T23:21:27.546Z,13.73
2022-10-11T23:25:30.750Z,13.72
2022-10-11T23:29:34.171Z,13.72
2022-10-11T23:33:39.427Z,13.70
2022-10-11T23:37:42.425Z,13.70
2022-10-11T23:41:45.493Z,13.71
2022-10-11T23:45:48.527Z,13.65
2022-10-11T23:49:53.126Z,13.62
2022-10-11T23:53:56.327Z,13.59
2022-10-11T23:57:59.486Z,13.57
